createdAt,value
2022-08-22T00:01:35.484Z,20.47
2022-08-22T00:06:48.001Z,20.42
2022-08-22T00:12:00.438Z,20.21
2022-08-22T00:17:12.892Z,20.12
2022-08-22T00:22:25.153Z,20.1
2022-08-22T00:27:37.392Z,19.93
2022-08-22T00:32:49.600Z,19.64
2022-08-22T00:38:01.888Z,19.43
2022-08-22T00:43:14.257Z,19.33
2022-08-22T00:48:26.538Z,19.28
2022-08-22T00:53:38.795Z,19.18
2022-08-22T00:58:51.149Z,19.09
2022-08-22T01:04:03.400Z,18.98
2022-08-22T01:09:15.662Z,18.96
2022-08-22T01:14:34.113Z,19.04
2022-08-22T01:19:40.406Z,19.18
2022-08-22T01:24:52.638Z,19.26
2022-08-22T01:30:04.841Z,19.3
2022-08-22T01:35:17.184Z,19.15
2022-08-22T01:40:29.395Z,18.96
2022-08-22T01:45:41.739Z,18.84
2022-08-22T01:50:54.053Z,18.75
2022-08-22T01:56:06.507Z,18.7
2022-08-22T02:01:18.866Z,18.7
2022-08-22T02:06:31.012Z,18.77
2022-08-22T02:11:43.542Z,18.87
2022-08-22T02:16:56.114Z,18.88
2022-08-22T02:22:08.613Z,18.7
2022-08-22T02:27:20.730Z,18.49
2022-08-22T02:32:32.847Z,18.33
2022-08-22T02:37:45.379Z,18.24
2022-08-22T02:42:57.502Z,18.2
2022-08-22T02:48:09.844Z,18.15
2022-08-22T02:53:22.260Z,18.12
2022-08-22T02:58:34.789Z,18.13
2022-08-22T03:03:47.110Z,18.14
2022-08-22T03:08:59.339Z,18.13
2022-08-22T03:14:11.549Z,18.11
2022-08-22T03:19:23.951Z,18.21
2022-08-22T03:24:36.091Z,18.34
2022-08-22T03:29:48.447Z,18.32
2022-08-22T03:35:00.663Z,18.25
2022-08-22T03:40:13.106Z,18.27
2022-08-22T03:45:25.210Z,18.28
2022-08-22T03:50:37.523Z,18.22
2022-08-22T03:55:49.902Z,18.22
2022-08-22T04:01:02.391Z,18.24
2022-08-22T04:06:14.646Z,18.23
2022-08-22T04:11:27.029Z,18.22
2022-08-22T04:16:39.400Z,18.25
2022-08-22T04:21:52.991Z,18.26
2022-08-22T04:27:05.332Z,18.29
2022-08-22T04:32:17.800Z,18.31
2022-08-22T04:37:30.142Z,18.34
2022-08-22T04:42:42.467Z,18.38
2022-08-22T04:47:55.172Z,18.43
2022-08-22T04:53:07.548Z,18.47
2022-08-22T04:58:20.267Z,18.53
2022-08-22T05:03:32.797Z,18.6
2022-08-22T05:08:45.118Z,18.69
2022-08-22T05:13:57.839Z,18.77
2022-08-22T05:19:14.409Z,18.82
2022-08-22T05:24:22.790Z,18.83
2022-08-22T05:29:35.144Z,18.93
2022-08-22T05:34:47.642Z,19.06
2022-08-22T05:40:00.384Z,19.19
2022-08-22T05:45:12.633Z,19.33
2022-08-22T05:50:25.332Z,19.41
2022-08-22T05:55:37.855Z,19.49
2022-08-22T06:00:50.172Z,19.61
2022-08-22T06:06:02.546Z,19.7
2022-08-22T06:11:14.929Z,19.8
2022-08-22T06:16:27.483Z,19.88
2022-08-22T06:21:40.272Z,19.95
2022-08-22T06:26:52.805Z,20.03
2022-08-22T06:32:05.131Z,20.12
2022-08-22T06:37:17.380Z,20.2
2022-08-22T06:42:29.884Z,20.33
2022-08-22T06:47:43.518Z,20.45
2022-08-22T06:52:54.788Z,20.56
2022-08-22T06:58:07.067Z,20.66
2022-08-22T07:03:19.429Z,20.77
2022-08-22T07:08:33.993Z,20.91
2022-08-22T07:13:44.040Z,21.04
2022-08-22T07:18:56.590Z,21.14
2022-08-22T07:24:09.132Z,21.26
2022-08-22T07:29:21.622Z,21.39
2022-08-22T07:34:34.196Z,21.52
2022-08-22T07:39:46.435Z,21.65
2022-08-22T07:44:58.987Z,21.78
2022-08-22T07:50:11.103Z,21.85
2022-08-22T07:55:23.470Z,21.95
2022-08-22T08:00:35.877Z,22.06
2022-08-22T08:05:48.204Z,22.22
2022-08-22T08:11:00.742Z,22.44
2022-08-22T08:16:13.157Z,22.65
2022-08-22T08:21:25.751Z,22.89
2022-08-22T08:26:38.132Z,23.15
2022-08-22T08:31:50.546Z,23.37
2022-08-22T08:37:02.819Z,23.57
2022-08-22T08:42:15.412Z,23.88
2022-08-22T08:47:27.921Z,24.15
2022-08-22T08:52:40.441Z,24.33
2022-08-22T08:57:52.991Z,24.49
2022-08-22T09:03:06.450Z,24.6
2022-08-22T09:08:18.494Z,24.68
2022-08-22T09:13:34.472Z,24.73
2022-08-22T09:18:42.565Z,24.83
2022-08-22T09:23:55.009Z,24.95
2022-08-22T09:29:07.702Z,25.07
2022-08-22T09:34:23.914Z,25.23
2022-08-22T09:39:32.334Z,25.4
2022-08-22T09:44:44.680Z,25.58
2022-08-22T09:49:57.007Z,25.66
2022-08-22T09:55:09.334Z,25.68
2022-08-22T10:00:22.269Z,25.78
2022-08-22T10:05:35.058Z,25.92
2022-08-22T10:10:46.290Z,26.05
2022-08-22T10:15:58.736Z,26.17
2022-08-22T10:21:11.155Z,26.31
2022-08-22T10:26:25.771Z,26.47
2022-08-22T10:31:38.469Z,26.62
2022-08-22T10:36:48.340Z,26.82
2022-08-22T10:42:00.668Z,27
2022-08-22T10:47:13.078Z,27.15
2022-08-22T10:52:25.319Z,27.26
2022-08-22T10:57:37.851Z,27.34
2022-08-22T11:02:52.349Z,27.37
2022-08-22T11:08:02.522Z,27.38
2022-08-22T11:13:14.921Z,27.48
2022-08-22T11:18:27.742Z,27.56
2022-08-22T11:23:40.571Z,27.61
2022-08-22T11:28:52.922Z,27.67
2022-08-22T11:34:05.188Z,27.72
2022-08-22T11:39:18.108Z,27.99
2022-08-22T11:44:30.207Z,28.07
2022-08-22T11:49:43.515Z,28.08
2022-08-22T11:54:55.626Z,28.19
2022-08-22T12:00:08.082Z,28.31
2022-08-22T12:05:24.555Z,28.35
2022-08-22T12:10:32.627Z,28.39
2022-08-22T12:15:45.145Z,28.41
2022-08-22T12:20:57.327Z,28.41
2022-08-22T12:26:10.841Z,28.15
2022-08-22T12:31:21.883Z,27.98
2022-08-22T12:36:34.119Z,27.8
2022-08-22T12:41:46.579Z,27.88
2022-08-22T12:46:58.765Z,28.09
2022-08-22T12:52:10.937Z,28.28
2022-08-22T12:57:24.145Z,28.46
2022-08-22T13:02:35.647Z,28.34
2022-08-22T13:07:48.141Z,28.34
2022-08-22T13:13:00.524Z,28.62
2022-08-22T13:18:29.102Z,28.77
2022-08-22T13:23:25.274Z,28.71
2022-08-22T13:28:37.689Z,28.64
2022-08-22T13:33:50.111Z,28.62
2022-08-22T13:39:04.206Z,28.49
2022-08-22T13:44:16.689Z,28.35
2022-08-22T13:49:29.053Z,28.21
2022-08-22T13:54:41.338Z,28.05
2022-08-22T13:59:57.726Z,28.04
2022-08-22T14:05:06.126Z,27.94
2022-08-22T14:10:18.414Z,27.81
2022-08-22T14:15:32.177Z,27.77
2022-08-22T14:20:42.973Z,27.79
2022-08-22T14:25:55.269Z,27.68
2022-08-22T14:31:07.606Z,27.73
2022-08-22T14:36:19.957Z,27.78
2022-08-22T14:41:53.052Z,27.82
2022-08-22T14:46:44.776Z,27.72
2022-08-22T14:51:56.929Z,27.69
2022-08-22T14:57:10.072Z,27.58
2022-08-22T15:02:21.524Z,27.5
2022-08-22T15:07:33.873Z,27.51
2022-08-22T15:12:46.070Z,27.54
2022-08-22T15:17:58.369Z,27.59
2022-08-22T15:23:10.617Z,27.66
2022-08-22T15:28:23.043Z,27.67
2022-08-22T15:33:35.364Z,27.68
2022-08-22T15:38:48.233Z,27.76
2022-08-22T15:44:00.418Z,27.89
2022-08-22T15:49:12.625Z,28.05
2022-08-22T15:54:25.615Z,28.22
2022-08-22T15:59:47.795Z,28.18
2022-08-22T16:04:49.692Z,27.94
2022-08-22T16:10:02.002Z,27.66
2022-08-22T16:15:14.291Z,27.37
2022-08-22T16:20:26.552Z,27.25
2022-08-22T16:25:38.803Z,27.16
2022-08-22T16:30:51.241Z,27.08
2022-08-22T16:36:03.432Z,26.96
2022-08-22T16:41:15.688Z,26.84
2022-08-22T16:46:28.013Z,26.68
2022-08-22T16:51:40.310Z,26.48
2022-08-22T16:56:52.770Z,26.34
2022-08-22T17:02:05.237Z,26.19
2022-08-22T17:07:17.496Z,25.99
2022-08-22T17:12:29.824Z,25.85
2022-08-22T17:17:42.184Z,25.8
2022-08-22T17:22:54.579Z,25.72
2022-08-22T17:28:06.922Z,25.55
2022-08-22T17:33:19.394Z,25.49
2022-08-22T17:38:31.644Z,25.33
2022-08-22T17:43:49.420Z,25.11
2022-08-22T17:48:56.148Z,25.1
2022-08-22T17:54:08.292Z,24.97
2022-08-22T17:59:21.026Z,24.75
2022-08-22T18:04:32.825Z,24.72
2022-08-22T18:09:45.275Z,24.66
2022-08-22T18:14:57.608Z,24.45
2022-08-22T18:20:09.835Z,24.32
2022-08-22T18:25:22.149Z,24.14
2022-08-22T18:30:34.963Z,23.98
2022-08-22T18:35:48.596Z,23.92
2022-08-22T18:40:59.626Z,23.9
2022-08-22T18:46:11.839Z,23.76
2022-08-22T18:51:24.895Z,23.69
2022-08-22T18:56:36.482Z,23.62
2022-08-22T19:01:48.853Z,23.58
2022-08-22T19:07:01.033Z,23.53
2022-08-22T19:12:13.361Z,23.46
2022-08-22T19:17:25.687Z,23.35
2022-08-22T19:22:38.223Z,23.3
2022-08-22T19:27:50.637Z,23.25
2022-08-22T19:33:03.072Z,23.2
2022-08-22T19:38:15.515Z,23.09
2022-08-22T19:43:27.824Z,23.02
2022-08-22T19:48:40.044Z,22.92
2022-08-22T19:53:52.420Z,22.89
2022-08-22T19:59:04.755Z,22.79
2022-08-22T20:04:17.113Z,22.71
2022-08-22T20:09:29.580Z,22.68
2022-08-22T20:14:41.969Z,22.63
2022-08-22T20:25:07.033Z,22.54
2022-08-22T20:30:19.435Z,22.49
2022-08-22T20:35:31.942Z,22.46
2022-08-22T20:40:55.849Z,22.37
2022-08-22T20:45:56.934Z,22.34
2022-08-22T20:51:09.224Z,22.31
2022-08-22T20:56:21.556Z,22.34
2022-08-22T21:01:34.116Z,22.27
2022-08-22T21:06:46.398Z,22.24
2022-08-22T21:11:58.887Z,22.25
2022-08-22T21:17:11.373Z,22.25
2022-08-22T21:22:23.931Z,22.24
2022-08-22T21:27:36.114Z,22.23
2022-08-22T21:32:51.101Z,22.22
2022-08-22T21:38:01.226Z,22.23
2022-08-22T21:43:13.317Z,22.22
2022-08-22T21:48:25.707Z,22.23
2022-08-22T21:53:38.069Z,22.22
2022-08-22T21:58:50.484Z,22.16
2022-08-22T22:04:02.971Z,22.14
2022-08-22T22:09:15.421Z,22.09
2022-08-22T22:14:27.667Z,22.04
2022-08-22T22:19:40.105Z,22.01
2022-08-22T22:24:52.804Z,21.99
2022-08-22T22:30:05.213Z,21.99
2022-08-22T22:35:17.670Z,21.94
2022-08-22T22:40:30.154Z,21.89
2022-08-22T22:45:42.293Z,21.86
2022-08-22T22:50:55.256Z,21.88
2022-08-22T22:56:07.714Z,21.84
2022-08-22T23:01:20.244Z,21.78
2022-08-22T23:06:32.859Z,21.74
2022-08-22T23:11:45.154Z,21.74
2022-08-22T23:16:57.373Z,21.67
2022-08-22T23:22:09.829Z,21.66
2022-08-22T23:27:22.117Z,21.66
2022-08-22T23:32:34.347Z,21.66
2022-08-22T23:37:46.441Z,21.63
2022-08-22T23:42:58.879Z,21.59
2022-08-22T23:48:11.252Z,21.62
2022-08-22T23:53:23.649Z,21.63
2022-08-22T23:58:35.863Z,21.62
